sensor_id;sensor_type;location;lat;lon;timestamp;P1;durP1;ratioP1;P2;durP2;ratioP2
249;SDS011;109;19.806;-70.704;2022-07-01T00:02:20;49.50;;;9.10;;
249;SDS011;109;19.806;-70.704;2022-07-01T00:04:46;49.73;;;8.67;;
249;SDS011;109;19.806;-70.704;2022-07-01T00:07:31;51.17;;;8.33;;
249;SDS011;109;19.806;-70.704;2022-07-01T00:09:58;44.93;;;9.47;;
249;SDS011;109;19.806;-70.704;2022-07-01T00:12:24;43.40;;;8.73;;
249;SDS011;109;19.806;-70.704;2022-07-01T00:14:51;49.73;;;9.40;;
249;SDS011;109;19.806;-70.704;2022-07-01T00:17:17;45.97;;;9.00;;
249;SDS011;109;19.806;-70.704;2022-07-01T00:19:43;66.13;;;9.83;;
249;SDS011;109;19.806;-70.704;2022-07-01T00:22:10;49.40;;;9.60;;
249;SDS011;109;19.806;-70.704;2022-07-01T00:24:37;48.90;;;9.90;;
249;SDS011;109;19.806;-70.704;2022-07-01T00:27:04;63.77;;;9.83;;
249;SDS011;109;19.806;-70.704;2022-07-01T00:29:30;55.03;;;9.30;;
249;SDS011;109;19.806;-70.704;2022-07-01T00:31:58;56.73;;;9.10;;
249;SDS011;109;19.806;-70.704;2022-07-01T00:34:25;58.30;;;10.67;;
249;SDS011;109;19.806;-70.704;2022-07-01T00:36:52;56.70;;;9.50;;
249;SDS011;109;19.806;-70.704;2022-07-01T00:39:18;45.67;;;8.73;;
249;SDS011;109;19.806;-70.704;2022-07-01T00:41:44;53.47;;;9.67;;
249;SDS011;109;19.806;-70.704;2022-07-01T00:44:18;57.70;;;12.27;;
249;SDS011;109;19.806;-70.704;2022-07-01T00:46:46;45.60;;;7.60;;
249;SDS011;109;19.806;-70.704;2022-07-01T00:49:22;56.40;;;11.00;;
249;SDS011;109;19.806;-70.704;2022-07-01T00:51:49;49.20;;;8.80;;
249;SDS011;109;19.806;-70.704;2022-07-01T00:54:23;49.50;;;8.90;;
249;SDS011;109;19.806;-70.704;2022-07-01T00:56:50;50.37;;;9.83;;
249;SDS011;109;19.806;-70.704;2022-07-01T00:59:23;42.30;;;8.70;;
249;SDS011;109;19.806;-70.704;2022-07-01T01:01:50;53.83;;;9.90;;
249;SDS011;109;19.806;-70.704;2022-07-01T01:04:23;45.30;;;7.90;;
249;SDS011;109;19.806;-70.704;2022-07-01T01:06:50;48.10;;;9.30;;
249;SDS011;109;19.806;-70.704;2022-07-01T01:09:23;41.50;;;8.20;;
249;SDS011;109;19.806;-70.704;2022-07-01T01:11:50;41.13;;;9.67;;
249;SDS011;109;19.806;-70.704;2022-07-01T01:14:24;43.30;;;8.20;;
249;SDS011;109;19.806;-70.704;2022-07-01T01:16:52;47.23;;;8.67;;
249;SDS011;109;19.806;-70.704;2022-07-01T01:19:33;38.73;;;8.80;;
249;SDS011;109;19.806;-70.704;2022-07-01T01:21:59;36.30;;;7.30;;
249;SDS011;109;19.806;-70.704;2022-07-01T01:24:46;40.87;;;8.30;;
249;SDS011;109;19.806;-70.704;2022-07-01T01:27:26;54.03;;;8.67;;
249;SDS011;109;19.806;-70.704;2022-07-01T01:30:06;33.47;;;8.17;;
249;SDS011;109;19.806;-70.704;2022-07-01T01:32:35;47.57;;;8.60;;
249;SDS011;109;19.806;-70.704;2022-07-01T01:35:15;39.07;;;8.57;;
249;SDS011;109;19.806;-70.704;2022-07-01T01:37:55;53.63;;;9.40;;
249;SDS011;109;19.806;-70.704;2022-07-01T01:40:21;40.53;;;9.77;;
249;SDS011;109;19.806;-70.704;2022-07-01T01:43:02;40.70;;;8.10;;
249;SDS011;109;19.806;-70.704;2022-07-01T01:45:28;56.93;;;8.27;;
249;SDS011;109;19.806;-70.704;2022-07-01T01:48:08;43.93;;;8.73;;
249;SDS011;109;19.806;-70.704;2022-07-01T01:50:34;42.47;;;8.30;;
249;SDS011;109;19.806;-70.704;2022-07-01T01:53:15;40.60;;;7.33;;
249;SDS011;109;19.806;-70.704;2022-07-01T01:55:41;34.77;;;8.07;;
249;SDS011;109;19.806;-70.704;2022-07-01T01:58:21;39.30;;;8.00;;
249;SDS011;109;19.806;-70.704;2022-07-01T02:00:51;47.43;;;8.90;;
249;SDS011;109;19.806;-70.704;2022-07-01T02:03:40;50.60;;;10.50;;
249;SDS011;109;19.806;-70.704;2022-07-01T02:06:15;44.60;;;9.27;;
249;SDS011;109;19.806;-70.704;2022-07-01T02:08:56;44.83;;;8.43;;
249;SDS011;109;19.806;-70.704;2022-07-01T02:11:22;35.13;;;8.43;;
249;SDS011;109;19.806;-70.704;2022-07-01T02:14:03;32.00;;;9.47;;
249;SDS011;109;19.806;-70.704;2022-07-01T02:16:30;44.20;;;8.70;;
249;SDS011;109;19.806;-70.704;2022-07-01T02:19:10;39.03;;;8.80;;
249;SDS011;109;19.806;-70.704;2022-07-01T02:21:36;51.43;;;9.67;;
249;SDS011;109;19.806;-70.704;2022-07-01T02:24:22;47.07;;;8.77;;
249;SDS011;109;19.806;-70.704;2022-07-01T02:27:02;31.13;;;8.83;;
249;SDS011;109;19.806;-70.704;2022-07-01T02:29:44;42.57;;;8.00;;
249;SDS011;109;19.806;-70.704;2022-07-01T02:32:10;40.30;;;9.57;;
249;SDS011;109;19.806;-70.704;2022-07-01T02:34:51;45.77;;;9.33;;
249;SDS011;109;19.806;-70.704;2022-07-01T02:37:17;40.00;;;8.50;;
249;SDS011;109;19.806;-70.704;2022-07-01T02:39:57;35.17;;;8.00;;
249;SDS011;109;19.806;-70.704;2022-07-01T02:42:23;38.37;;;9.03;;
249;SDS011;109;19.806;-70.704;2022-07-01T02:45:07;37.80;;;7.70;;
249;SDS011;109;19.806;-70.704;2022-07-01T02:47:35;42.43;;;7.73;;
249;SDS011;109;19.806;-70.704;2022-07-01T02:50:17;35.87;;;8.30;;
249;SDS011;109;19.806;-70.704;2022-07-01T02:53:05;56.37;;;13.13;;
249;SDS011;109;19.806;-70.704;2022-07-01T02:55:39;38.07;;;8.60;;
249;SDS011;109;19.806;-70.704;2022-07-01T02:58:19;37.80;;;7.93;;
249;SDS011;109;19.806;-70.704;2022-07-01T03:00:45;31.23;;;8.40;;
249;SDS011;109;19.806;-70.704;2022-07-01T03:03:26;34.93;;;8.53;;
249;SDS011;109;19.806;-70.704;2022-07-01T03:05:52;43.17;;;8.77;;
249;SDS011;109;19.806;-70.704;2022-07-01T03:08:32;32.97;;;7.90;;
249;SDS011;109;19.806;-70.704;2022-07-01T03:10:58;38.40;;;9.23;;
249;SDS011;109;19.806;-70.704;2022-07-01T03:13:38;40.67;;;9.23;;
249;SDS011;109;19.806;-70.704;2022-07-01T03:16:04;33.10;;;7.77;;
249;SDS011;109;19.806;-70.704;2022-07-01T03:18:45;40.10;;;8.30;;
249;SDS011;109;19.806;-70.704;2022-07-01T03:21:11;34.13;;;7.77;;
249;SDS011;109;19.806;-70.704;2022-07-01T03:23:58;31.97;;;7.63;;
249;SDS011;109;19.806;-70.704;2022-07-01T03:26:38;38.37;;;8.00;;
249;SDS011;109;19.806;-70.704;2022-07-01T03:29:19;31.50;;;7.83;;
249;SDS011;109;19.806;-70.704;2022-07-01T03:31:45;39.70;;;8.60;;
249;SDS011;109;19.806;-70.704;2022-07-01T03:34:26;38.70;;;7.80;;
249;SDS011;109;19.806;-70.704;2022-07-01T03:36:52;44.10;;;9.97;;
249;SDS011;109;19.806;-70.704;2022-07-01T03:39:32;45.17;;;8.63;;
249;SDS011;109;19.806;-70.704;2022-07-01T03:42:00;33.07;;;7.30;;
249;SDS011;109;19.806;-70.704;2022-07-01T03:44:41;27.23;;;7.70;;
249;SDS011;109;19.806;-70.704;2022-07-01T03:47:16;31.00;;;7.83;;
249;SDS011;109;19.806;-70.704;2022-07-01T03:49:57;41.17;;;8.07;;
249;SDS011;109;19.806;-70.704;2022-07-01T03:52:23;33.67;;;7.90;;
249;SDS011;109;19.806;-70.704;2022-07-01T03:55:03;28.43;;;7.80;;
249;SDS011;109;19.806;-70.704;2022-07-01T03:57:30;27.77;;;7.83;;
249;SDS011;109;19.806;-70.704;2022-07-01T04:02:37;22.17;;;7.47;;
249;SDS011;109;19.806;-70.704;2022-07-01T04:05:17;38.80;;;7.83;;
249;SDS011;109;19.806;-70.704;2022-07-01T04:07:57;30.30;;;8.63;;
249;SDS011;109;19.806;-70.704;2022-07-01T04:10:23;35.87;;;7.93;;
249;SDS011;109;19.806;-70.704;2022-07-01T04:13:05;35.10;;;6.93;;
249;SDS011;109;19.806;-70.704;2022-07-01T04:15:31;36.47;;;8.37;;
249;SDS011;109;19.806;-70.704;2022-07-01T04:18:11;26.83;;;6.60;;
249;SDS011;109;19.806;-70.704;2022-07-01T04:20:38;35.30;;;7.40;;
249;SDS011;109;19.806;-70.704;2022-07-01T04:23:44;28.87;;;7.57;;
249;SDS011;109;19.806;-70.704;2022-07-01T04:26:24;32.87;;;6.93;;
249;SDS011;109;19.806;-70.704;2022-07-01T04:29:04;36.17;;;7.93;;
249;SDS011;109;19.806;-70.704;2022-07-01T04:31:31;48.30;;;9.10;;
249;SDS011;109;19.806;-70.704;2022-07-01T04:34:11;28.57;;;6.70;;
249;SDS011;109;19.806;-70.704;2022-07-01T04:36:37;42.90;;;8.43;;
249;SDS011;109;19.806;-70.704;2022-07-01T04:39:25;39.30;;;7.27;;
249;SDS011;109;19.806;-70.704;2022-07-01T04:41:59;37.60;;;7.50;;
249;SDS011;109;19.806;-70.704;2022-07-01T04:44:39;26.50;;;6.40;;
249;SDS011;109;19.806;-70.704;2022-07-01T04:47:05;29.20;;;6.53;;
249;SDS011;109;19.806;-70.704;2022-07-01T04:49:45;33.83;;;6.80;;
249;SDS011;109;19.806;-70.704;2022-07-01T04:52:11;40.27;;;8.77;;
249;SDS011;109;19.806;-70.704;2022-07-01T04:54:52;23.83;;;6.87;;
249;SDS011;109;19.806;-70.704;2022-07-01T04:57:19;34.73;;;6.57;;
249;SDS011;109;19.806;-70.704;2022-07-01T04:59:58;43.40;;;8.07;;
249;SDS011;109;19.806;-70.704;2022-07-01T05:02:24;27.10;;;6.53;;
249;SDS011;109;19.806;-70.704;2022-07-01T05:05:04;33.90;;;8.00;;
249;SDS011;109;19.806;-70.704;2022-07-01T05:07:32;35.77;;;7.43;;
249;SDS011;109;19.806;-70.704;2022-07-01T05:10:13;35.47;;;7.73;;
249;SDS011;109;19.806;-70.704;2022-07-01T05:12:40;30.40;;;7.20;;
249;SDS011;109;19.806;-70.704;2022-07-01T05:15:19;30.23;;;7.20;;
249;SDS011;109;19.806;-70.704;2022-07-01T05:18:06;26.53;;;6.60;;
249;SDS011;109;19.806;-70.704;2022-07-01T05:20:58;46.63;;;8.20;;
249;SDS011;109;19.806;-70.704;2022-07-01T05:24:04;35.57;;;7.60;;
249;SDS011;109;19.806;-70.704;2022-07-01T05:26:44;33.57;;;7.60;;
249;SDS011;109;19.806;-70.704;2022-07-01T05:29:25;31.73;;;6.93;;
249;SDS011;109;19.806;-70.704;2022-07-01T05:31:51;22.80;;;7.07;;
249;SDS011;109;19.806;-70.704;2022-07-01T05:34:31;25.83;;;7.00;;
249;SDS011;109;19.806;-70.704;2022-07-01T05:36:57;26.23;;;7.23;;
249;SDS011;109;19.806;-70.704;2022-07-01T05:39:37;27.87;;;7.00;;
249;SDS011;109;19.806;-70.704;2022-07-01T05:42:03;28.83;;;6.67;;
249;SDS011;109;19.806;-70.704;2022-07-01T05:44:44;31.03;;;6.90;;
249;SDS011;109;19.806;-70.704;2022-07-01T05:47:10;32.23;;;6.43;;
249;SDS011;109;19.806;-70.704;2022-07-01T05:49:50;30.40;;;7.70;;
249;SDS011;109;19.806;-70.704;2022-07-01T05:52:16;28.97;;;6.80;;
249;SDS011;109;19.806;-70.704;2022-07-01T05:54:56;28.90;;;7.50;;
249;SDS011;109;19.806;-70.704;2022-07-01T05:57:22;33.13;;;7.40;;
249;SDS011;109;19.806;-70.704;2022-07-01T06:00:03;28.90;;;6.50;;
249;SDS011;109;19.806;-70.704;2022-07-01T06:02:37;30.20;;;7.80;;
249;SDS011;109;19.806;-70.704;2022-07-01T06:05:17;27.97;;;7.20;;
249;SDS011;109;19.806;-70.704;2022-07-01T06:07:57;33.10;;;8.53;;
249;SDS011;109;19.806;-70.704;2022-07-01T06:10:30;36.30;;;7.90;;
249;SDS011;109;19.806;-70.704;2022-07-01T06:13:10;34.87;;;6.60;;
249;SDS011;109;19.806;-70.704;2022-07-01T06:15:36;31.87;;;7.70;;
249;SDS011;109;19.806;-70.704;2022-07-01T06:18:17;19.80;;;6.60;;
249;SDS011;109;19.806;-70.704;2022-07-01T06:20:43;31.90;;;8.73;;
249;SDS011;109;19.806;-70.704;2022-07-01T06:23:23;37.60;;;6.83;;
249;SDS011;109;19.806;-70.704;2022-07-01T06:25:49;24.10;;;6.63;;
249;SDS011;109;19.806;-70.704;2022-07-01T06:28:35;21.20;;;7.30;;
249;SDS011;109;19.806;-70.704;2022-07-01T06:31:09;34.33;;;7.87;;
249;SDS011;109;19.806;-70.704;2022-07-01T06:33:50;30.83;;;6.77;;
249;SDS011;109;19.806;-70.704;2022-07-01T06:36:17;23.83;;;6.30;;
249;SDS011;109;19.806;-70.704;2022-07-01T06:38:56;28.13;;;7.03;;
249;SDS011;109;19.806;-70.704;2022-07-01T06:41:22;18.00;;;6.50;;
249;SDS011;109;19.806;-70.704;2022-07-01T06:44:03;32.90;;;7.63;;
249;SDS011;109;19.806;-70.704;2022-07-01T06:46:31;30.03;;;6.50;;
249;SDS011;109;19.806;-70.704;2022-07-01T06:49:12;21.40;;;6.40;;
249;SDS011;109;19.806;-70.704;2022-07-01T06:51:38;29.70;;;6.73;;
249;SDS011;109;19.806;-70.704;2022-07-01T06:54:19;28.17;;;6.43;;
249;SDS011;109;19.806;-70.704;2022-07-01T06:56:45;27.33;;;6.63;;
249;SDS011;109;19.806;-70.704;2022-07-01T06:59:25;30.20;;;8.07;;
249;SDS011;109;19.806;-70.704;2022-07-01T07:01:51;23.87;;;6.27;;
249;SDS011;109;19.806;-70.704;2022-07-01T07:04:39;24.43;;;6.67;;
249;SDS011;109;19.806;-70.704;2022-07-01T07:07:12;27.07;;;6.37;;
249;SDS011;109;19.806;-70.704;2022-07-01T07:09:52;24.80;;;6.00;;
249;SDS011;109;19.806;-70.704;2022-07-01T07:12:18;23.73;;;7.13;;
249;SDS011;109;19.806;-70.704;2022-07-01T07:14:58;32.67;;;6.70;;
249;SDS011;109;19.806;-70.704;2022-07-01T07:17:25;22.30;;;6.40;;
249;SDS011;109;19.806;-70.704;2022-07-01T07:20:05;36.60;;;6.77;;
249;SDS011;109;19.806;-70.704;2022-07-01T07:22:32;25.83;;;6.43;;
249;SDS011;109;19.806;-70.704;2022-07-01T07:25:19;24.63;;;6.90;;
249;SDS011;109;19.806;-70.704;2022-07-01T07:27:59;22.60;;;5.70;;
249;SDS011;109;19.806;-70.704;2022-07-01T07:30:26;24.80;;;6.60;;
249;SDS011;109;19.806;-70.704;2022-07-01T07:33:06;28.17;;;7.63;;
249;SDS011;109;19.806;-70.704;2022-07-01T07:35:32;24.50;;;6.37;;
249;SDS011;109;19.806;-70.704;2022-07-01T07:38:13;22.57;;;6.07;;
249;SDS011;109;19.806;-70.704;2022-07-01T07:40:39;19.43;;;5.80;;
249;SDS011;109;19.806;-70.704;2022-07-01T07:43:19;24.80;;;6.30;;
249;SDS011;109;19.806;-70.704;2022-07-01T07:45:45;30.23;;;6.50;;
249;SDS011;109;19.806;-70.704;2022-07-01T07:48:25;24.17;;;6.33;;
249;SDS011;109;19.806;-70.704;2022-07-01T07:50:51;27.40;;;6.20;;
249;SDS011;109;19.806;-70.704;2022-07-01T07:53:32;21.13;;;5.87;;
249;SDS011;109;19.806;-70.704;2022-07-01T07:55:59;26.03;;;7.30;;
249;SDS011;109;19.806;-70.704;2022-07-01T07:58:38;31.40;;;7.20;;
249;SDS011;109;19.806;-70.704;2022-07-01T08:01:14;28.83;;;6.83;;
249;SDS011;109;19.806;-70.704;2022-07-01T08:03:54;33.07;;;7.23;;
249;SDS011;109;19.806;-70.704;2022-07-01T08:06:20;26.53;;;6.33;;
249;SDS011;109;19.806;-70.704;2022-07-01T08:09:01;19.37;;;6.00;;
249;SDS011;109;19.806;-70.704;2022-07-01T08:11:28;28.03;;;6.10;;
249;SDS011;109;19.806;-70.704;2022-07-01T08:14:08;20.63;;;6.00;;
249;SDS011;109;19.806;-70.704;2022-07-01T08:16:35;28.80;;;5.93;;
249;SDS011;109;19.806;-70.704;2022-07-01T08:19:22;23.67;;;6.23;;
249;SDS011;109;19.806;-70.704;2022-07-01T08:21:55;24.33;;;6.07;;
249;SDS011;109;19.806;-70.704;2022-07-01T08:24:42;33.07;;;6.20;;
249;SDS011;109;19.806;-70.704;2022-07-01T08:27:21;21.13;;;6.70;;
249;SDS011;109;19.806;-70.704;2022-07-01T08:30:01;28.67;;;6.67;;
249;SDS011;109;19.806;-70.704;2022-07-01T08:32:28;34.20;;;7.03;;
249;SDS011;109;19.806;-70.704;2022-07-01T08:35:08;22.90;;;6.07;;
249;SDS011;109;19.806;-70.704;2022-07-01T08:37:48;20.90;;;5.60;;
249;SDS011;109;19.806;-70.704;2022-07-01T08:40:14;17.80;;;5.73;;
249;SDS011;109;19.806;-70.704;2022-07-01T08:42:55;28.27;;;6.70;;
249;SDS011;109;19.806;-70.704;2022-07-01T08:45:24;29.90;;;7.00;;
249;SDS011;109;19.806;-70.704;2022-07-01T08:48:05;21.73;;;6.93;;
249;SDS011;109;19.806;-70.704;2022-07-01T08:50:36;33.83;;;6.37;;
249;SDS011;109;19.806;-70.704;2022-07-01T08:53:18;23.13;;;7.00;;
249;SDS011;109;19.806;-70.704;2022-07-01T08:55:44;25.07;;;7.07;;
249;SDS011;109;19.806;-70.704;2022-07-01T08:58:43;26.47;;;6.93;;
249;SDS011;109;19.806;-70.704;2022-07-01T09:01:16;20.43;;;6.27;;
249;SDS011;109;19.806;-70.704;2022-07-01T09:04:17;24.30;;;6.40;;
249;SDS011;109;19.806;-70.704;2022-07-01T09:06:51;24.07;;;5.50;;
249;SDS011;109;19.806;-70.704;2022-07-01T09:09:38;28.87;;;6.20;;
249;SDS011;109;19.806;-70.704;2022-07-01T09:12:06;20.17;;;6.67;;
249;SDS011;109;19.806;-70.704;2022-07-01T09:14:47;26.47;;;7.07;;
249;SDS011;109;19.806;-70.704;2022-07-01T09:17:18;30.97;;;6.40;;
249;SDS011;109;19.806;-70.704;2022-07-01T09:19:58;26.07;;;6.43;;
249;SDS011;109;19.806;-70.704;2022-07-01T09:22:25;29.13;;;5.90;;
249;SDS011;109;19.806;-70.704;2022-07-01T09:25:13;23.53;;;6.57;;
249;SDS011;109;19.806;-70.704;2022-07-01T09:28:05;22.63;;;5.90;;
249;SDS011;109;19.806;-70.704;2022-07-01T09:30:47;19.00;;;5.83;;
249;SDS011;109;19.806;-70.704;2022-07-01T09:33:30;27.67;;;6.93;;
249;SDS011;109;19.806;-70.704;2022-07-01T09:35:56;21.13;;;5.90;;
249;SDS011;109;19.806;-70.704;2022-07-01T09:38:36;21.47;;;5.60;;
249;SDS011;109;19.806;-70.704;2022-07-01T09:41:26;28.80;;;6.60;;
249;SDS011;109;19.806;-70.704;2022-07-01T09:44:07;24.77;;;6.13;;
249;SDS011;109;19.806;-70.704;2022-07-01T09:46:34;28.37;;;6.37;;
249;SDS011;109;19.806;-70.704;2022-07-01T09:49:16;38.10;;;7.40;;
249;SDS011;109;19.806;-70.704;2022-07-01T09:51:43;29.00;;;6.20;;
249;SDS011;109;19.806;-70.704;2022-07-01T09:54:23;23.97;;;6.80;;
249;SDS011;109;19.806;-70.704;2022-07-01T09:56:49;25.73;;;7.40;;
249;SDS011;109;19.806;-70.704;2022-07-01T09:59:29;22.13;;;5.97;;
249;SDS011;109;19.806;-70.704;2022-07-01T10:01:56;28.60;;;6.70;;
249;SDS011;109;19.806;-70.704;2022-07-01T10:04:37;33.33;;;6.80;;
249;SDS011;109;19.806;-70.704;2022-07-01T10:07:17;26.03;;;7.03;;
249;SDS011;109;19.806;-70.704;2022-07-01T10:13:00;27.30;;;6.47;;
249;SDS011;109;19.806;-70.704;2022-07-01T10:15:28;25.47;;;7.40;;
249;SDS011;109;19.806;-70.704;2022-07-01T10:18:23;25.20;;;6.30;;
249;SDS011;109;19.806;-70.704;2022-07-01T10:20:57;32.93;;;6.60;;
249;SDS011;109;19.806;-70.704;2022-07-01T10:29:45;27.93;;;7.27;;
249;SDS011;109;19.806;-70.704;2022-07-01T10:35:05;20.40;;;6.97;;
249;SDS011;109;19.806;-70.704;2022-07-01T10:38:21;19.27;;;6.13;;
249;SDS011;109;19.806;-70.704;2022-07-01T10:40:44;25.00;;;6.20;;
249;SDS011;109;19.806;-70.704;2022-07-01T10:43:32;32.50;;;7.70;;
249;SDS011;109;19.806;-70.704;2022-07-01T10:52:13;20.30;;;6.80;;
249;SDS011;109;19.806;-70.704;2022-07-01T10:54:56;33.73;;;7.07;;
249;SDS011;109;19.806;-70.704;2022-07-01T10:57:27;25.67;;;7.17;;
249;SDS011;109;19.806;-70.704;2022-07-01T11:02:36;40.60;;;6.63;;
249;SDS011;109;19.806;-70.704;2022-07-01T11:05:17;23.97;;;7.17;;
249;SDS011;109;19.806;-70.704;2022-07-01T11:07:44;28.87;;;6.80;;
249;SDS011;109;19.806;-70.704;2022-07-01T11:10:33;23.00;;;6.90;;
249;SDS011;109;19.806;-70.704;2022-07-01T11:13:06;25.53;;;6.50;;
249;SDS011;109;19.806;-70.704;2022-07-01T11:16:02;49.77;;;7.10;;
249;SDS011;109;19.806;-70.704;2022-07-01T11:18:35;20.63;;;5.97;;
249;SDS011;109;19.806;-70.704;2022-07-01T11:21:15;30.37;;;6.83;;
249;SDS011;109;19.806;-70.704;2022-07-01T11:23:56;20.53;;;6.60;;
249;SDS011;109;19.806;-70.704;2022-07-01T11:26:23;27.80;;;6.70;;
249;SDS011;109;19.806;-70.704;2022-07-01T11:29:10;28.53;;;5.70;;
249;SDS011;109;19.806;-70.704;2022-07-01T11:31:50;26.90;;;6.37;;
249;SDS011;109;19.806;-70.704;2022-07-01T11:34:31;29.10;;;6.50;;
249;SDS011;109;19.806;-70.704;2022-07-01T11:36:57;24.03;;;6.07;;
249;SDS011;109;19.806;-70.704;2022-07-01T11:42:39;31.17;;;6.13;;
249;SDS011;109;19.806;-70.704;2022-07-01T11:45:22;28.30;;;6.50;;
249;SDS011;109;19.806;-70.704;2022-07-01T11:47:56;18.23;;;6.13;;
249;SDS011;109;19.806;-70.704;2022-07-01T11:50:36;19.90;;;5.87;;
249;SDS011;109;19.806;-70.704;2022-07-01T11:53:16;25.67;;;6.87;;
249;SDS011;109;19.806;-70.704;2022-07-01T11:55:44;24.47;;;6.27;;
249;SDS011;109;19.806;-70.704;2022-07-01T11:58:39;25.13;;;6.40;;
249;SDS011;109;19.806;-70.704;2022-07-01T12:01:21;22.83;;;5.60;;
249;SDS011;109;19.806;-70.704;2022-07-01T12:04:03;35.77;;;7.33;;
249;SDS011;109;19.806;-70.704;2022-07-01T12:06:39;25.33;;;6.13;;
249;SDS011;109;19.806;-70.704;2022-07-01T12:09:26;35.10;;;5.80;;
249;SDS011;109;19.806;-70.704;2022-07-01T12:12:00;26.57;;;5.97;;
249;SDS011;109;19.806;-70.704;2022-07-01T12:14:48;24.17;;;6.50;;
249;SDS011;109;19.806;-70.704;2022-07-01T12:17:23;30.77;;;6.07;;
249;SDS011;109;19.806;-70.704;2022-07-01T12:20:04;25.13;;;6.00;;
249;SDS011;109;19.806;-70.704;2022-07-01T12:22:31;32.50;;;6.33;;
249;SDS011;109;19.806;-70.704;2022-07-01T12:25:12;24.60;;;6.97;;
249;SDS011;109;19.806;-70.704;2022-07-01T12:27:41;23.60;;;5.63;;
249;SDS011;109;19.806;-70.704;2022-07-01T12:30:27;26.97;;;6.17;;
249;SDS011;109;19.806;-70.704;2022-07-01T12:33:08;32.57;;;6.37;;
249;SDS011;109;19.806;-70.704;2022-07-01T12:35:51;29.30;;;5.87;;
249;SDS011;109;19.806;-70.704;2022-07-01T12:38:17;24.97;;;6.20;;
249;SDS011;109;19.806;-70.704;2022-07-01T12:40:57;31.30;;;6.67;;
249;SDS011;109;19.806;-70.704;2022-07-01T12:43:24;29.77;;;6.30;;
249;SDS011;109;19.806;-70.704;2022-07-01T12:46:10;42.57;;;7.53;;
249;SDS011;109;19.806;-70.704;2022-07-01T12:49:21;33.20;;;7.10;;
249;SDS011;109;19.806;-70.704;2022-07-01T12:51:55;46.80;;;8.40;;
249;SDS011;109;19.806;-70.704;2022-07-01T12:54:35;34.00;;;7.03;;
249;SDS011;109;19.806;-70.704;2022-07-01T12:57:03;27.03;;;6.43;;
249;SDS011;109;19.806;-70.704;2022-07-01T12:59:43;31.87;;;6.87;;
249;SDS011;109;19.806;-70.704;2022-07-01T13:02:10;43.17;;;7.90;;
249;SDS011;109;19.806;-70.704;2022-07-01T13:04:49;29.83;;;6.30;;
249;SDS011;109;19.806;-70.704;2022-07-01T13:07:16;39.60;;;6.40;;
249;SDS011;109;19.806;-70.704;2022-07-01T13:09:55;29.80;;;6.60;;
249;SDS011;109;19.806;-70.704;2022-07-01T13:12:22;31.07;;;6.30;;
249;SDS011;109;19.806;-70.704;2022-07-01T13:15:02;42.13;;;6.70;;
249;SDS011;109;19.806;-70.704;2022-07-01T13:17:29;37.40;;;6.50;;
249;SDS011;109;19.806;-70.704;2022-07-01T13:20:11;33.80;;;6.23;;
249;SDS011;109;19.806;-70.704;2022-07-01T13:22:38;28.53;;;6.90;;
249;SDS011;109;19.806;-70.704;2022-07-01T13:25:18;28.97;;;6.33;;
249;SDS011;109;19.806;-70.704;2022-07-01T13:27:45;22.70;;;5.87;;
249;SDS011;109;19.806;-70.704;2022-07-01T13:30:32;36.03;;;7.10;;
249;SDS011;109;19.806;-70.704;2022-07-01T13:33:05;38.27;;;5.93;;
249;SDS011;109;19.806;-70.704;2022-07-01T13:35:45;33.33;;;6.10;;
249;SDS011;109;19.806;-70.704;2022-07-01T13:38:12;28.47;;;5.40;;
249;SDS011;109;19.806;-70.704;2022-07-01T13:40:51;29.63;;;6.37;;
249;SDS011;109;19.806;-70.704;2022-07-01T13:43:18;30.40;;;6.00;;
249;SDS011;109;19.806;-70.704;2022-07-01T13:46:05;22.10;;;5.10;;
249;SDS011;109;19.806;-70.704;2022-07-01T13:48:37;28.27;;;5.30;;
249;SDS011;109;19.806;-70.704;2022-07-01T13:51:17;52.97;;;6.60;;
249;SDS011;109;19.806;-70.704;2022-07-01T13:53:57;23.13;;;6.60;;
249;SDS011;109;19.806;-70.704;2022-07-01T13:56:24;27.70;;;5.47;;
249;SDS011;109;19.806;-70.704;2022-07-01T13:59:04;29.33;;;5.27;;
249;SDS011;109;19.806;-70.704;2022-07-01T14:01:30;23.67;;;5.17;;
249;SDS011;109;19.806;-70.704;2022-07-01T14:04:10;19.67;;;5.17;;
249;SDS011;109;19.806;-70.704;2022-07-01T14:06:37;25.63;;;5.40;;
249;SDS011;109;19.806;-70.704;2022-07-01T14:09:17;22.70;;;6.47;;
249;SDS011;109;19.806;-70.704;2022-07-01T14:11:44;26.67;;;5.50;;
249;SDS011;109;19.806;-70.704;2022-07-01T14:14:25;25.17;;;5.30;;
249;SDS011;109;19.806;-70.704;2022-07-01T14:16:51;28.27;;;5.40;;
249;SDS011;109;19.806;-70.704;2022-07-01T14:19:31;32.03;;;5.90;;
249;SDS011;109;19.806;-70.704;2022-07-01T14:21:59;20.23;;;5.50;;
249;SDS011;109;19.806;-70.704;2022-07-01T14:24:39;24.90;;;5.10;;
249;SDS011;109;19.806;-70.704;2022-07-01T14:27:05;29.97;;;6.27;;
249;SDS011;109;19.806;-70.704;2022-07-01T14:29:52;21.83;;;4.77;;
249;SDS011;109;19.806;-70.704;2022-07-01T14:32:31;28.40;;;4.90;;
249;SDS011;109;19.806;-70.704;2022-07-01T14:35:12;29.40;;;6.27;;
249;SDS011;109;19.806;-70.704;2022-07-01T14:37:38;23.07;;;4.70;;
249;SDS011;109;19.806;-70.704;2022-07-01T14:40:18;25.83;;;5.57;;
249;SDS011;109;19.806;-70.704;2022-07-01T14:42:45;20.30;;;5.47;;
249;SDS011;109;19.806;-70.704;2022-07-01T14:45:33;24.17;;;5.23;;
249;SDS011;109;19.806;-70.704;2022-07-01T14:48:05;22.03;;;5.43;;
249;SDS011;109;19.806;-70.704;2022-07-01T14:50:47;27.90;;;6.20;;
249;SDS011;109;19.806;-70.704;2022-07-01T14:53:14;30.03;;;5.30;;
249;SDS011;109;19.806;-70.704;2022-07-01T14:55:53;25.13;;;4.83;;
249;SDS011;109;19.806;-70.704;2022-07-01T14:58:20;25.07;;;5.30;;
249;SDS011;109;19.806;-70.704;2022-07-01T15:01:00;27.30;;;6.07;;
249;SDS011;109;19.806;-70.704;2022-07-01T15:03:27;23.17;;;4.50;;
249;SDS011;109;19.806;-70.704;2022-07-01T15:06:07;25.67;;;5.63;;
249;SDS011;109;19.806;-70.704;2022-07-01T15:08:34;23.33;;;5.50;;
249;SDS011;109;19.806;-70.704;2022-07-01T15:11:14;29.00;;;5.47;;
249;SDS011;109;19.806;-70.704;2022-07-01T15:13:54;27.17;;;5.87;;
249;SDS011;109;19.806;-70.704;2022-07-01T15:16:20;28.40;;;5.90;;
249;SDS011;109;19.806;-70.704;2022-07-01T15:19:00;22.00;;;5.40;;
249;SDS011;109;19.806;-70.704;2022-07-01T15:21:27;21.33;;;6.20;;
249;SDS011;109;19.806;-70.704;2022-07-01T15:24:07;23.60;;;5.20;;
249;SDS011;109;19.806;-70.704;2022-07-01T15:26:34;20.17;;;4.50;;
249;SDS011;109;19.806;-70.704;2022-07-01T15:29:22;32.20;;;5.77;;
249;SDS011;109;19.806;-70.704;2022-07-01T15:32:01;31.23;;;6.23;;
249;SDS011;109;19.806;-70.704;2022-07-01T15:34:41;35.27;;;6.57;;
249;SDS011;109;19.806;-70.704;2022-07-01T15:37:08;19.13;;;5.13;;
249;SDS011;109;19.806;-70.704;2022-07-01T15:39:55;18.03;;;5.40;;
249;SDS011;109;19.806;-70.704;2022-07-01T15:42:28;30.13;;;5.70;;
249;SDS011;109;19.806;-70.704;2022-07-01T15:45:08;32.33;;;5.23;;
249;SDS011;109;19.806;-70.704;2022-07-01T15:47:35;23.43;;;5.37;;
249;SDS011;109;19.806;-70.704;2022-07-01T15:50:33;24.27;;;5.83;;
249;SDS011;109;19.806;-70.704;2022-07-01T15:53:00;28.40;;;5.27;;
249;SDS011;109;19.806;-70.704;2022-07-01T15:55:41;23.40;;;5.80;;
249;SDS011;109;19.806;-70.704;2022-07-01T15:58:12;31.80;;;5.97;;
249;SDS011;109;19.806;-70.704;2022-07-01T16:00:52;51.60;;;7.77;;
249;SDS011;109;19.806;-70.704;2022-07-01T16:03:19;42.43;;;5.80;;
249;SDS011;109;19.806;-70.704;2022-07-01T16:06:00;23.27;;;4.93;;
249;SDS011;109;19.806;-70.704;2022-07-01T16:08:38;27.67;;;5.77;;
249;SDS011;109;19.806;-70.704;2022-07-01T16:11:21;26.20;;;6.13;;
249;SDS011;109;19.806;-70.704;2022-07-01T16:14:02;26.07;;;5.20;;
249;SDS011;109;19.806;-70.704;2022-07-01T16:16:32;20.53;;;5.33;;
249;SDS011;109;19.806;-70.704;2022-07-01T16:19:14;29.37;;;5.80;;